sensor_id;sensor_type;location;lat;lon;timestamp;pressure;altitude;pressure_sealevel;temperature;humidity
63097;BME280;49185;42.320;23.198;2023-01-08T00:02:13;95440.28;;;-3.73;88.68
63097;BME280;49185;42.320;23.198;2023-01-08T00:04:39;95439.91;;;-3.51;86.89
63097;BME280;49185;42.320;23.198;2023-01-08T00:07:04;95441.94;;;-3.45;85.92
63097;BME280;49185;42.320;23.198;2023-01-08T00:09:30;95438.28;;;-3.89;87.28
63097;BME280;49185;42.320;23.198;2023-01-08T00:11:55;95438.63;;;-4.12;87.90
63097;BME280;49185;42.320;23.198;2023-01-08T00:14:21;95437.81;;;-4.12;88.98
63097;BME280;49185;42.320;23.198;2023-01-08T00:16:46;95437.66;;;-4.11;89.41
63097;BME280;49185;42.320;23.198;2023-01-08T00:19:11;95438.34;;;-4.18;89.43
63097;BME280;49185;42.320;23.198;2023-01-08T00:21:37;95435.91;;;-4.20;89.50
63097;BME280;49185;42.320;23.198;2023-01-08T00:24:03;95441.22;;;-4.22;90.19
63097;BME280;49185;42.320;23.198;2023-01-08T00:26:28;95430.28;;;-4.15;90.09
63097;BME280;49185;42.320;23.198;2023-01-08T00:28:54;95438.34;;;-4.18;89.60
63097;BME280;49185;42.320;23.198;2023-01-08T00:31:19;95437.09;;;-4.05;89.33
63097;BME280;49185;42.320;23.198;2023-01-08T00:33:45;95431.31;;;-3.98;88.37
63097;BME280;49185;42.320;23.198;2023-01-08T00:36:13;95431.78;;;-3.75;87.86
63097;BME280;49185;42.320;23.198;2023-01-08T00:38:39;95439.91;;;-3.88;87.90
63097;BME280;49185;42.320;23.198;2023-01-08T00:41:05;95429.56;;;-4.08;87.68
63097;BME280;49185;42.320;23.198;2023-01-08T00:43:30;95436.06;;;-4.31;88.29
63097;BME280;49185;42.320;23.198;2023-01-08T00:45:56;95438.13;;;-4.35;89.17
63097;BME280;49185;42.320;23.198;2023-01-08T00:48:21;95432.38;;;-4.39;89.15
63097;BME280;49185;42.320;23.198;2023-01-08T00:50:51;95435.53;;;-4.35;89.47
63097;BME280;49185;42.320;23.198;2023-01-08T00:53:17;95431.28;;;-4.36;89.90
63097;BME280;49185;42.320;23.198;2023-01-08T00:55:43;95438.69;;;-4.51;89.86
63097;BME280;49185;42.320;23.198;2023-01-08T00:58:10;95439.66;;;-4.62;90.51
63097;BME280;49185;42.320;23.198;2023-01-08T01:00:35;95436.63;;;-4.67;90.37
63097;BME280;49185;42.320;23.198;2023-01-08T01:03:01;95442.25;;;-4.62;90.70
63097;BME280;49185;42.320;23.198;2023-01-08T01:05:26;95442.63;;;-4.47;90.71
63097;BME280;49185;42.320;23.198;2023-01-08T01:07:52;95435.78;;;-4.38;90.56
63097;BME280;49185;42.320;23.198;2023-01-08T01:10:17;95433.91;;;-4.46;90.19
63097;BME280;49185;42.320;23.198;2023-01-08T01:12:43;95442.91;;;-4.50;90.79
63097;BME280;49185;42.320;23.198;2023-01-08T01:15:10;95447.16;;;-4.49;90.91
63097;BME280;49185;42.320;23.198;2023-01-08T01:17:40;95434.50;;;-4.05;90.04
63097;BME280;49185;42.320;23.198;2023-01-08T01:20:09;95433.25;;;-4.01;88.82
63097;BME280;49185;42.320;23.198;2023-01-08T01:22:35;95439.59;;;-4.32;89.11
63097;BME280;49185;42.320;23.198;2023-01-08T01:25:00;95434.69;;;-4.16;89.25
63097;BME280;49185;42.320;23.198;2023-01-08T01:27:27;95435.91;;;-4.20;88.62
63097;BME280;49185;42.320;23.198;2023-01-08T01:29:53;95439.22;;;-4.47;88.73
63097;BME280;49185;42.320;23.198;2023-01-08T01:32:18;95433.91;;;-4.65;89.84
63097;BME280;49185;42.320;23.198;2023-01-08T01:34:44;95439.09;;;-4.75;89.92
63097;BME280;49185;42.320;23.198;2023-01-08T01:37:11;95431.31;;;-4.75;90.13
63097;BME280;49185;42.320;23.198;2023-01-08T01:39:37;95429.81;;;-4.78;90.13
63097;BME280;49185;42.320;23.198;2023-01-08T01:42:02;95435.81;;;-4.77;90.53
63097;BME280;49185;42.320;23.198;2023-01-08T01:44:54;95422.16;;;-4.79;90.28
63097;BME280;49185;42.320;23.198;2023-01-08T01:50:04;95425.00;;;-4.82;89.81
63097;BME280;49185;42.320;23.198;2023-01-08T01:52:37;95423.78;;;-4.59;88.87
63097;BME280;49185;42.320;23.198;2023-01-08T01:55:04;95421.16;;;-4.59;89.26
63097;BME280;49185;42.320;23.198;2023-01-08T01:57:32;95423.47;;;-4.36;89.04
63097;BME280;49185;42.320;23.198;2023-01-08T01:59:59;95422.41;;;-4.43;87.53
63097;BME280;49185;42.320;23.198;2023-01-08T02:02:25;95420.94;;;-4.65;88.65
63097;BME280;49185;42.320;23.198;2023-01-08T02:04:51;95424.34;;;-4.74;88.69
63097;BME280;49185;42.320;23.198;2023-01-08T02:10:35;95422.13;;;-4.69;89.29
63097;BME280;49185;42.320;23.198;2023-01-08T02:13:16;95426.81;;;-4.83;88.67
63097;BME280;49185;42.320;23.198;2023-01-08T02:16:00;95422.97;;;-4.98;89.96
63097;BME280;49185;42.320;23.198;2023-01-08T02:21:13;95418.72;;;-5.09;90.03
63097;BME280;49185;42.320;23.198;2023-01-08T02:23:55;95415.44;;;-5.01;90.41
63097;BME280;49185;42.320;23.198;2023-01-08T02:26:31;95416.28;;;-5.01;90.25
63097;BME280;49185;42.320;23.198;2023-01-08T02:29:27;95416.66;;;-5.05;90.29
63097;BME280;49185;42.320;23.198;2023-01-08T02:31:54;95411.75;;;-5.08;90.10
63097;BME280;49185;42.320;23.198;2023-01-08T02:34:19;95414.63;;;-5.11;90.50
63097;BME280;49185;42.320;23.198;2023-01-08T02:36:55;95416.13;;;-5.09;90.65
63097;BME280;49185;42.320;23.198;2023-01-08T02:39:50;95411.50;;;-5.15;90.72
63097;BME280;49185;42.320;23.198;2023-01-08T02:42:45;95422.13;;;-5.18;90.83
63097;BME280;49185;42.320;23.198;2023-01-08T02:45:43;95411.31;;;-5.13;90.15
63097;BME280;49185;42.320;23.198;2023-01-08T02:48:14;95412.00;;;-5.21;89.98
63097;BME280;49185;42.320;23.198;2023-01-08T02:53:32;95399.19;;;-5.32;90.25
63097;BME280;49185;42.320;23.198;2023-01-08T02:56:02;95404.38;;;-5.32;90.39
63097;BME280;49185;42.320;23.198;2023-01-08T02:58:31;95405.22;;;-4.93;88.95
63097;BME280;49185;42.320;23.198;2023-01-08T03:01:01;95404.13;;;-4.71;88.35
63097;BME280;49185;42.320;23.198;2023-01-08T03:03:28;95398.66;;;-4.78;88.18
63097;BME280;49185;42.320;23.198;2023-01-08T03:06:01;95401.66;;;-4.72;87.81
63097;BME280;49185;42.320;23.198;2023-01-08T03:08:28;95397.44;;;-4.64;86.95
63097;BME280;49185;42.320;23.198;2023-01-08T03:11:03;95402.34;;;-5.00;87.43
63097;BME280;49185;42.320;23.198;2023-01-08T03:13:33;95398.91;;;-5.20;88.72
63097;BME280;49185;42.320;23.198;2023-01-08T03:16:04;95399.47;;;-5.16;89.65
63097;BME280;49185;42.320;23.198;2023-01-08T03:18:39;95404.66;;;-5.26;89.82
63097;BME280;49185;42.320;23.198;2023-01-08T03:21:06;95403.38;;;-5.31;90.21
63097;BME280;49185;42.320;23.198;2023-01-08T03:23:33;95403.13;;;-5.38;90.64
63097;BME280;49185;42.320;23.198;2023-01-08T03:26:02;95413.34;;;-5.46;90.15
63097;BME280;49185;42.320;23.198;2023-01-08T03:28:34;95406.50;;;-5.47;90.69
63097;BME280;49185;42.320;23.198;2023-01-08T03:31:01;95404.22;;;-5.21;90.15
63097;BME280;49185;42.320;23.198;2023-01-08T03:33:29;95408.50;;;-5.01;89.01
63097;BME280;49185;42.320;23.198;2023-01-08T03:35:59;95407.91;;;-5.34;89.21
63097;BME280;49185;42.320;23.198;2023-01-08T03:38:47;95412.38;;;-5.45;90.27
63097;BME280;49185;42.320;23.198;2023-01-08T03:41:18;95412.91;;;-5.51;90.16
63097;BME280;49185;42.320;23.198;2023-01-08T03:43:45;95413.44;;;-5.58;90.79
63097;BME280;49185;42.320;23.198;2023-01-08T03:46:19;95410.28;;;-5.61;90.87
63097;BME280;49185;42.320;23.198;2023-01-08T03:48:47;95403.22;;;-5.49;91.18
63097;BME280;49185;42.320;23.198;2023-01-08T03:51:13;95405.13;;;-5.51;90.83
63097;BME280;49185;42.320;23.198;2023-01-08T03:53:39;95396.25;;;-5.49;90.45
63097;BME280;49185;42.320;23.198;2023-01-08T03:56:05;95408.09;;;-5.56;90.53
63097;BME280;49185;42.320;23.198;2023-01-08T03:58:30;95414.94;;;-5.55;90.58
63097;BME280;49185;42.320;23.198;2023-01-08T04:00:56;95405.09;;;-5.61;90.82
63097;BME280;49185;42.320;23.198;2023-01-08T04:03:21;95400.50;;;-5.58;90.38
63097;BME280;49185;42.320;23.198;2023-01-08T04:05:46;95400.19;;;-5.55;90.88
63097;BME280;49185;42.320;23.198;2023-01-08T04:08:12;95401.94;;;-5.65;90.40
63097;BME280;49185;42.320;23.198;2023-01-08T04:10:37;95407.13;;;-5.75;90.38
63097;BME280;49185;42.320;23.198;2023-01-08T04:13:03;95396.44;;;-5.81;90.92
63097;BME280;49185;42.320;23.198;2023-01-08T04:15:28;95406.19;;;-5.64;90.72
63097;BME280;49185;42.320;23.198;2023-01-08T04:17:53;95406.75;;;-5.60;90.11
63097;BME280;49185;42.320;23.198;2023-01-08T04:20:19;95411.25;;;-5.53;89.89
63097;BME280;49185;42.320;23.198;2023-01-08T04:22:44;95407.13;;;-5.65;90.27
63097;BME280;49185;42.320;23.198;2023-01-08T04:25:10;95404.13;;;-5.70;90.46
63097;BME280;49185;42.320;23.198;2023-01-08T04:27:36;95409.97;;;-5.78;91.19
63097;BME280;49185;42.320;23.198;2023-01-08T04:30:01;95402.88;;;-5.76;90.74
63097;BME280;49185;42.320;23.198;2023-01-08T04:32:27;95412.69;;;-5.79;90.98
63097;BME280;49185;42.320;23.198;2023-01-08T04:34:52;95410.63;;;-5.45;91.07
63097;BME280;49185;42.320;23.198;2023-01-08T04:37:18;95400.97;;;-4.94;88.88
63097;BME280;49185;42.320;23.198;2023-01-08T04:39:43;95413.13;;;-4.75;85.93
63097;BME280;49185;42.320;23.198;2023-01-08T04:42:09;95406.44;;;-4.78;84.67
63097;BME280;49185;42.320;23.198;2023-01-08T04:44:34;95413.84;;;-5.62;85.97
63097;BME280;49185;42.320;23.198;2023-01-08T04:46:59;95408.09;;;-6.06;87.84
63097;BME280;49185;42.320;23.198;2023-01-08T04:49:25;95413.06;;;-6.24;88.65
63097;BME280;49185;42.320;23.198;2023-01-08T04:51:50;95412.25;;;-6.25;89.47
63097;BME280;49185;42.320;23.198;2023-01-08T04:54:16;95412.09;;;-6.23;90.77
63097;BME280;49185;42.320;23.198;2023-01-08T04:56:41;95414.44;;;-6.20;90.41
63097;BME280;49185;42.320;23.198;2023-01-08T04:59:06;95415.81;;;-6.16;90.77
63097;BME280;49185;42.320;23.198;2023-01-08T05:01:32;95409.38;;;-6.22;90.82
63097;BME280;49185;42.320;23.198;2023-01-08T05:04:00;95409.41;;;-5.81;90.16
63097;BME280;49185;42.320;23.198;2023-01-08T05:06:27;95413.97;;;-6.04;89.61
63097;BME280;49185;42.320;23.198;2023-01-08T05:08:53;95412.59;;;-6.08;90.30
63097;BME280;49185;42.320;23.198;2023-01-08T05:11:19;95410.38;;;-5.73;90.07
63097;BME280;49185;42.320;23.198;2023-01-08T05:13:49;95411.69;;;-5.88;88.73
63097;BME280;49185;42.320;23.198;2023-01-08T05:16:15;95408.91;;;-6.06;89.63
63097;BME280;49185;42.320;23.198;2023-01-08T05:18:42;95408.81;;;-6.25;89.92
63097;BME280;49185;42.320;23.198;2023-01-08T05:21:07;95402.97;;;-6.27;90.71
63097;BME280;49185;42.320;23.198;2023-01-08T05:23:33;95411.25;;;-6.34;91.16
63097;BME280;49185;42.320;23.198;2023-01-08T05:26:00;95412.75;;;-6.31;91.55
63097;BME280;49185;42.320;23.198;2023-01-08T05:28:26;95407.47;;;-6.20;90.53
63097;BME280;49185;42.320;23.198;2023-01-08T05:30:52;95416.13;;;-6.09;91.13
63097;BME280;49185;42.320;23.198;2023-01-08T05:33:19;95402.16;;;-5.97;89.93
63097;BME280;49185;42.320;23.198;2023-01-08T05:35:44;95406.88;;;-5.62;90.33
63097;BME280;49185;42.320;23.198;2023-01-08T05:38:09;95404.66;;;-5.16;87.25
63097;BME280;49185;42.320;23.198;2023-01-08T05:40:35;95407.94;;;-5.14;84.75
63097;BME280;49185;42.320;23.198;2023-01-08T05:43:01;95407.38;;;-5.78;86.96
63097;BME280;49185;42.320;23.198;2023-01-08T05:45:27;95399.97;;;-5.42;85.81
63097;BME280;49185;42.320;23.198;2023-01-08T05:47:53;95414.28;;;-5.47;85.43
63097;BME280;49185;42.320;23.198;2023-01-08T05:50:18;95409.25;;;-5.39;84.91
63097;BME280;49185;42.320;23.198;2023-01-08T05:52:44;95415.34;;;-6.00;85.81
63097;BME280;49185;42.320;23.198;2023-01-08T05:55:10;95417.72;;;-5.87;87.00
63097;BME280;49185;42.320;23.198;2023-01-08T05:57:35;95421.63;;;-6.03;86.88
63097;BME280;49185;42.320;23.198;2023-01-08T06:00:03;95426.13;;;-6.26;88.31
63097;BME280;49185;42.320;23.198;2023-01-08T06:02:29;95417.09;;;-6.11;89.74
63097;BME280;49185;42.320;23.198;2023-01-08T06:04:54;95422.56;;;-6.04;88.91
63097;BME280;49185;42.320;23.198;2023-01-08T06:07:19;95418.03;;;-6.12;88.99
63097;BME280;49185;42.320;23.198;2023-01-08T06:09:45;95426.69;;;-6.22;90.09
63097;BME280;49185;42.320;23.198;2023-01-08T06:12:10;95420.44;;;-6.20;90.55
63097;BME280;49185;42.320;23.198;2023-01-08T06:14:36;95418.97;;;-6.13;90.75
63097;BME280;49185;42.320;23.198;2023-01-08T06:17:01;95417.22;;;-6.12;90.53
63097;BME280;49185;42.320;23.198;2023-01-08T06:19:26;95418.03;;;-6.12;90.67
63097;BME280;49185;42.320;23.198;2023-01-08T06:21:52;95427.88;;;-6.05;90.38
63097;BME280;49185;42.320;23.198;2023-01-08T06:24:17;95424.75;;;-6.09;90.64
63097;BME280;49185;42.320;23.198;2023-01-08T06:26:43;95416.47;;;-5.43;89.47
63097;BME280;49185;42.320;23.198;2023-01-08T06:29:08;95421.31;;;-5.69;88.94
63097;BME280;49185;42.320;23.198;2023-01-08T06:31:34;95423.34;;;-5.73;88.79
63097;BME280;49185;42.320;23.198;2023-01-08T06:33:59;95429.63;;;-5.75;88.78
63097;BME280;49185;42.320;23.198;2023-01-08T06:36:24;95431.00;;;-5.11;89.61
63097;BME280;49185;42.320;23.198;2023-01-08T06:38:50;95419.94;;;-2.51;81.92
63097;BME280;49185;42.320;23.198;2023-01-08T06:41:15;95407.72;;;-0.78;74.11
63097;BME280;49185;42.320;23.198;2023-01-08T06:43:41;95413.78;;;0.05;67.97
63097;BME280;49185;42.320;23.198;2023-01-08T06:46:07;95412.31;;;0.98;64.27
63097;BME280;49185;42.320;23.198;2023-01-08T06:48:33;95408.88;;;1.28;60.66
63097;BME280;49185;42.320;23.198;2023-01-08T06:51:00;95412.50;;;1.74;59.60
63097;BME280;49185;42.320;23.198;2023-01-08T06:53:25;95414.69;;;1.85;60.20
63097;BME280;49185;42.320;23.198;2023-01-08T06:55:51;95417.94;;;1.87;58.78
63097;BME280;49185;42.320;23.198;2023-01-08T06:58:16;95420.97;;;1.06;60.78
63097;BME280;49185;42.320;23.198;2023-01-08T07:00:42;95433.06;;;-0.38;64.93
63097;BME280;49185;42.320;23.198;2023-01-08T07:03:07;95437.03;;;-2.12;70.92
63097;BME280;49185;42.320;23.198;2023-01-08T07:05:34;95433.97;;;-2.25;72.67
63097;BME280;49185;42.320;23.198;2023-01-08T07:07:59;95439.81;;;-2.86;75.52
63097;BME280;49185;42.320;23.198;2023-01-08T07:10:25;95428.94;;;-2.01;75.67
63097;BME280;49185;42.320;23.198;2023-01-08T07:12:50;95426.88;;;-0.20;70.04
63097;BME280;49185;42.320;23.198;2023-01-08T07:15:16;95422.66;;;1.92;61.01
63097;BME280;49185;42.320;23.198;2023-01-08T07:17:41;95426.97;;;2.67;59.27
63097;BME280;49185;42.320;23.198;2023-01-08T07:20:09;95419.00;;;3.85;53.89
63097;BME280;49185;42.320;23.198;2023-01-08T07:22:34;95429.97;;;2.49;58.80
63097;BME280;49185;42.320;23.198;2023-01-08T07:25:00;95441.66;;;0.85;64.27
63097;BME280;49185;42.320;23.198;2023-01-08T07:27:26;95432.75;;;-0.34;69.34
63097;BME280;49185;42.320;23.198;2023-01-08T07:29:51;95447.34;;;-1.07;72.21
63097;BME280;49185;42.320;23.198;2023-01-08T07:32:16;95447.44;;;-1.60;75.38
63097;BME280;49185;42.320;23.198;2023-01-08T07:34:42;95444.00;;;-1.95;77.20
63097;BME280;49185;42.320;23.198;2023-01-08T07:37:07;95442.06;;;-1.84;77.62
63097;BME280;49185;42.320;23.198;2023-01-08T07:39:33;95435.25;;;-1.51;76.39
63097;BME280;49185;42.320;23.198;2023-01-08T07:41:58;95430.56;;;-0.97;73.81
63097;BME280;49185;42.320;23.198;2023-01-08T07:44:24;95433.72;;;0.06;70.84
63097;BME280;49185;42.320;23.198;2023-01-08T07:46:49;95435.06;;;1.28;67.21
63097;BME280;49185;42.320;23.198;2023-01-08T07:49:14;95438.13;;;1.63;63.54
63097;BME280;49185;42.320;23.198;2023-01-08T07:51:40;95437.53;;;0.51;67.40
63097;BME280;49185;42.320;23.198;2023-01-08T07:54:05;95437.25;;;1.17;66.47
63097;BME280;49185;42.320;23.198;2023-01-08T07:56:31;95428.75;;;3.69;58.84
63097;BME280;49185;42.320;23.198;2023-01-08T07:58:56;95421.59;;;5.11;53.12
63097;BME280;49185;42.320;23.198;2023-01-08T08:01:22;95423.59;;;5.64;51.81
63097;BME280;49185;42.320;23.198;2023-01-08T08:03:47;95419.88;;;4.90;54.49
63097;BME280;49185;42.320;23.198;2023-01-08T08:06:13;95428.09;;;3.24;59.58
63097;BME280;49185;42.320;23.198;2023-01-08T08:08:38;95430.69;;;2.28;63.75
63097;BME280;49185;42.320;23.198;2023-01-08T08:11:04;95425.47;;;2.73;63.18
63097;BME280;49185;42.320;23.198;2023-01-08T08:13:29;95437.06;;;2.78;62.89
63097;BME280;49185;42.320;23.198;2023-01-08T08:16:00;95428.22;;;3.01;62.74
63097;BME280;49185;42.320;23.198;2023-01-08T08:18:25;95427.03;;;2.14;65.06
63097;BME280;49185;42.320;23.198;2023-01-08T08:20:51;95422.69;;;3.69;61.86
63097;BME280;49185;42.320;23.198;2023-01-08T08:23:16;95426.19;;;3.54;61.48
63097;BME280;49185;42.320;23.198;2023-01-08T08:25:42;95429.31;;;4.08;60.17
63097;BME280;49185;42.320;23.198;2023-01-08T08:28:09;95420.72;;;5.52;54.89
63097;BME280;49185;42.320;23.198;2023-01-08T08:30:36;95418.06;;;5.45;53.91
63097;BME280;49185;42.320;23.198;2023-01-08T08:33:03;95419.28;;;5.49;54.18
63097;BME280;49185;42.320;23.198;2023-01-08T08:35:30;95412.00;;;5.51;53.64
63097;BME280;49185;42.320;23.198;2023-01-08T08:37:56;95411.44;;;5.76;54.38
63097;BME280;49185;42.320;23.198;2023-01-08T08:40:24;95411.25;;;6.24;52.96
63097;BME280;49185;42.320;23.198;2023-01-08T08:43:01;95403.88;;;5.53;55.40
63097;BME280;49185;42.320;23.198;2023-01-08T08:45:27;95416.34;;;5.18;58.02
63097;BME280;49185;42.320;23.198;2023-01-08T08:47:53;95419.06;;;2.97;65.44
63097;BME280;49185;42.320;23.198;2023-01-08T08:50:19;95418.25;;;3.33;65.40
63097;BME280;49185;42.320;23.198;2023-01-08T08:52:44;95415.59;;;2.75;65.68
63097;BME280;49185;42.320;23.198;2023-01-08T08:55:11;95421.91;;;3.75;62.78
63097;BME280;49185;42.320;23.198;2023-01-08T08:57:36;95410.28;;;4.12;62.78
63097;BME280;49185;42.320;23.198;2023-01-08T09:00:02;95417.00;;;3.44;63.96
63097;BME280;49185;42.320;23.198;2023-01-08T09:02:27;95418.81;;;3.07;64.82
63097;BME280;49185;42.320;23.198;2023-01-08T09:04:53;95417.81;;;3.29;65.79
63097;BME280;49185;42.320;23.198;2023-01-08T09:07:18;95411.94;;;4.13;63.29
63097;BME280;49185;42.320;23.198;2023-01-08T09:09:44;95415.31;;;3.21;65.86
63097;BME280;49185;42.320;23.198;2023-01-08T09:12:09;95411.06;;;4.06;62.84
63097;BME280;49185;42.320;23.198;2023-01-08T09:14:34;95412.84;;;3.77;65.06
63097;BME280;49185;42.320;23.198;2023-01-08T09:17:00;95416.19;;;4.14;63.94
63097;BME280;49185;42.320;23.198;2023-01-08T09:19:25;95398.56;;;4.15;63.84
63097;BME280;49185;42.320;23.198;2023-01-08T09:21:51;95402.34;;;3.19;66.57
63097;BME280;49185;42.320;23.198;2023-01-08T09:24:16;95402.88;;;3.51;67.25
63097;BME280;49185;42.320;23.198;2023-01-08T09:26:42;95399.66;;;3.34;66.88
63097;BME280;49185;42.320;23.198;2023-01-08T09:29:07;95401.19;;;3.44;68.99
63097;BME280;49185;42.320;23.198;2023-01-08T09:31:33;95395.25;;;3.78;67.26
63097;BME280;49185;42.320;23.198;2023-01-08T09:33:58;95390.44;;;3.38;67.59
63097;BME280;49185;42.320;23.198;2023-01-08T09:36:24;95394.50;;;3.41;68.07
63097;BME280;49185;42.320;23.198;2023-01-08T09:38:49;95381.13;;;4.14;65.94
63097;BME280;49185;42.320;23.198;2023-01-08T09:41:18;95377.47;;;4.43;64.57
63097;BME280;49185;42.320;23.198;2023-01-08T09:43:48;95366.34;;;5.78;59.79
63097;BME280;49185;42.320;23.198;2023-01-08T09:46:14;95373.03;;;4.85;60.71
63097;BME280;49185;42.320;23.198;2023-01-08T09:48:42;95362.81;;;5.30;60.83
63097;BME280;49185;42.320;23.198;2023-01-08T09:51:13;95358.63;;;4.88;62.62
63097;BME280;49185;42.320;23.198;2023-01-08T09:53:39;95359.22;;;4.77;62.99
63097;BME280;49185;42.320;23.198;2023-01-08T09:56:11;95347.25;;;4.81;62.31
63097;BME280;49185;42.320;23.198;2023-01-08T09:58:44;95348.69;;;5.92;59.54
63097;BME280;49185;42.320;23.198;2023-01-08T10:01:13;95346.44;;;6.29;59.33
63097;BME280;49185;42.320;23.198;2023-01-08T10:03:43;95330.59;;;6.29;57.40
63097;BME280;49185;42.320;23.198;2023-01-08T10:06:12;95329.78;;;5.75;61.04
63097;BME280;49185;42.320;23.198;2023-01-08T10:08:37;95332.00;;;5.44;60.91
63097;BME280;49185;42.320;23.198;2023-01-08T10:11:04;95324.38;;;6.68;58.13
63097;BME280;49185;42.320;23.198;2023-01-08T10:13:31;95325.28;;;7.32;54.43
63097;BME280;49185;42.320;23.198;2023-01-08T10:15:56;95322.06;;;7.23;54.40
63097;BME280;49185;42.320;23.198;2023-01-08T10:18:24;95318.47;;;7.11;54.59
63097;BME280;49185;42.320;23.198;2023-01-08T10:20:51;95318.41;;;7.25;53.66
63097;BME280;49185;42.320;23.198;2023-01-08T10:23:18;95318.38;;;7.31;54.68
63097;BME280;49185;42.320;23.198;2023-01-08T10:28:19;95303.03;;;6.63;56.57
63097;BME280;49185;42.320;23.198;2023-01-08T10:30:45;95313.16;;;8.00;53.21
63097;BME280;49185;42.320;23.198;2023-01-08T10:33:25;95299.16;;;7.68;53.31
63097;BME280;49185;42.320;23.198;2023-01-08T10:36:02;95297.03;;;8.45;53.23
63097;BME280;49185;42.320;23.198;2023-01-08T10:41:12;95289.13;;;9.24;49.97
63097;BME280;49185;42.320;23.198;2023-01-08T10:43:52;95287.44;;;9.11;51.19
63097;BME280;49185;42.320;23.198;2023-01-08T10:46:42;95276.09;;;8.74;50.72
63097;BME280;49185;42.320;23.198;2023-01-08T10:49:28;95275.16;;;10.18;48.15
63097;BME280;49185;42.320;23.198;2023-01-08T10:51:55;95268.94;;;10.36;47.56
63097;BME280;49185;42.320;23.198;2023-01-08T10:54:37;95261.72;;;11.47;44.77
63097;BME280;49185;42.320;23.198;2023-01-08T10:57:23;95258.91;;;11.53;43.55
63097;BME280;49185;42.320;23.198;2023-01-08T10:59:49;95253.16;;;11.45;43.84
63097;BME280;49185;42.320;23.198;2023-01-08T11:02:34;95254.28;;;11.83;42.88
63097;BME280;49185;42.320;23.198;2023-01-08T11:05:02;95251.31;;;12.13;41.76
63097;BME280;49185;42.320;23.198;2023-01-08T11:07:28;95247.88;;;12.57;41.33
63097;BME280;49185;42.320;23.198;2023-01-08T11:09:54;95247.88;;;12.34;41.23
63097;BME280;49185;42.320;23.198;2023-01-08T11:12:36;95241.69;;;10.70;45.39
63097;BME280;49185;42.320;23.198;2023-01-08T11:17:53;95238.13;;;12.89;39.91
63097;BME280;49185;42.320;23.198;2023-01-08T11:20:27;95228.25;;;13.17;38.86
63097;BME280;49185;42.320;23.198;2023-01-08T11:23:13;95227.66;;;13.10;39.40
63097;BME280;49185;42.320;23.198;2023-01-08T11:25:42;95221.19;;;11.95;41.85
63097;BME280;49185;42.320;23.198;2023-01-08T11:28:15;95231.56;;;12.31;41.80
63097;BME280;49185;42.320;23.198;2023-01-08T11:30:51;95219.69;;;13.15;39.69
63097;BME280;49185;42.320;23.198;2023-01-08T11:33:22;95221.63;;;13.20;39.47
63097;BME280;49185;42.320;23.198;2023-01-08T11:35:55;95217.38;;;12.30;40.70
63097;BME280;49185;42.320;23.198;2023-01-08T11:38:24;95220.25;;;12.90;40.56
63097;BME280;49185;42.320;23.198;2023-01-08T11:40:54;95217.59;;;12.46;41.39
63097;BME280;49185;42.320;23.198;2023-01-08T11:43:45;95211.88;;;11.98;42.25
63097;BME280;49185;42.320;23.198;2023-01-08T11:54:47;95193.38;;;14.41;37.37
63097;BME280;49185;42.320;23.198;2023-01-08T12:02:52;95198.81;;;11.29;44.33
63097;BME280;49185;42.320;23.198;2023-01-08T12:05:27;95194.59;;;9.94;47.37
63097;BME280;49185;42.320;23.198;2023-01-08T12:08:22;95190.44;;;10.62;46.04
63097;BME280;49185;42.320;23.198;2023-01-08T12:35:42;95168.69;;;15.49;33.72
63097;BME280;49185;42.320;23.198;2023-01-08T12:38:14;95165.31;;;13.26;37.08
63097;BME280;49185;42.320;23.198;2023-01-08T12:41:03;95168.78;;;11.67;41.10
63097;BME280;49185;42.320;23.198;2023-01-08T12:43:56;95171.84;;;11.25;41.52
63097;BME280;49185;42.320;23.198;2023-01-08T12:46:30;95172.81;;;11.53;41.56
63097;BME280;49185;42.320;23.198;2023-01-08T12:48:58;95161.22;;;10.79;43.35
63097;BME280;49185;42.320;23.198;2023-01-08T12:51:30;95167.00;;;9.36;46.94
63097;BME280;49185;42.320;23.198;2023-01-08T13:02:02;95155.19;;;8.97;48.66
63097;BME280;49185;42.320;23.198;2023-01-08T13:04:45;95152.25;;;9.40;47.35
63097;BME280;49185;42.320;23.198;2023-01-08T13:07:41;95156.00;;;8.67;48.10
63097;BME280;49185;42.320;23.198;2023-01-08T13:12:55;95157.72;;;8.61;49.63
63097;BME280;49185;42.320;23.198;2023-01-08T13:15:23;95150.94;;;9.07;48.71
63097;BME280;49185;42.320;23.198;2023-01-08T13:17:50;95147.63;;;8.70;49.23
63097;BME280;49185;42.320;23.198;2023-01-08T13:20:28;95156.13;;;8.23;50.34
63097;BME280;49185;42.320;23.198;2023-01-08T13:22:57;95153.34;;;8.36;50.18
63097;BME280;49185;42.320;23.198;2023-01-08T13:27:48;95150.84;;;8.23;50.92
63097;BME280;49185;42.320;23.198;2023-01-08T13:30:39;95153.84;;;8.27;50.07
63097;BME280;49185;42.320;23.198;2023-01-08T13:33:45;95152.28;;;7.89;51.69
63097;BME280;49185;42.320;23.198;2023-01-08T13:38:44;95146.66;;;7.78;52.01
63097;BME280;49185;42.320;23.198;2023-01-08T13:41:24;95143.41;;;7.95;51.52
63097;BME280;49185;42.320;23.198;2023-01-08T13:44:46;95147.56;;;7.91;51.32
63097;BME280;49185;42.320;23.198;2023-01-08T13:46:54;95149.97;;;7.55;52.90
63097;BME280;49185;42.320;23.198;2023-01-08T13:49:44;95148.91;;;7.38;53.51
63097;BME280;49185;42.320;23.198;2023-01-08T13:52:30;95151.06;;;6.97;54.41
63097;BME280;49185;42.320;23.198;2023-01-08T13:54:57;95147.44;;;6.92;54.30
63097;BME280;49185;42.320;23.198;2023-01-08T13:57:24;95142.75;;;6.94;53.70
63097;BME280;49185;42.320;23.198;2023-01-08T13:59:57;95140.97;;;6.88;53.44
63097;BME280;49185;42.320;23.198;2023-01-08T14:02:29;95146.88;;;6.90;53.63
63097;BME280;49185;42.320;23.198;2023-01-08T14:04:55;95147.63;;;6.97;53.09
63097;BME280;49185;42.320;23.198;2023-01-08T14:07:21;95150.75;;;7.12;52.33
63097;BME280;49185;42.320;23.198;2023-01-08T14:09:47;95153.66;;;6.79;54.21
63097;BME280;49185;42.320;23.198;2023-01-08T14:12:16;95145.03;;;6.58;54.46
63097;BME280;49185;42.320;23.198;2023-01-08T14:14:47;95147.47;;;6.60;53.71
63097;BME280;49185;42.320;23.198;2023-01-08T14:17:15;95138.59;;;6.79;53.52